sensor_id;sensor_type;location;lat;lon;timestamp;pressure;altitude;pressure_sealevel;temperature;humidity
74790;BME280;63318;52.406;13.416;2022-11-23T00:00:18;99998.42;;;1.02;84.31
74790;BME280;63318;52.406;13.416;2022-11-23T00:02:47;99993.02;;;1.04;84.70
74790;BME280;63318;52.406;13.416;2022-11-23T00:05:19;99996.84;;;1.08;84.51
74790;BME280;63318;52.406;13.416;2022-11-23T00:07:48;99987.41;;;1.11;84.61
74790;BME280;63318;52.406;13.416;2022-11-23T00:10:17;99980.67;;;1.14;84.98
74790;BME280;63318;52.406;13.416;2022-11-23T00:12:45;99980.95;;;1.16;84.78
74790;BME280;63318;52.406;13.416;2022-11-23T00:15:15;99979.48;;;1.19;84.88
74790;BME280;63318;52.406;13.416;2022-11-23T00:17:44;99981.29;;;1.21;84.71
74790;BME280;63318;52.406;13.416;2022-11-23T00:20:13;99978.87;;;1.20;84.57
74790;BME280;63318;52.406;13.416;2022-11-23T00:22:42;99977.05;;;1.18;84.82
74790;BME280;63318;52.406;13.416;2022-11-23T00:25:10;99979.50;;;1.15;83.95
74790;BME280;63318;52.406;13.416;2022-11-23T00:27:38;99972.12;;;1.10;84.40
74790;BME280;63318;52.406;13.416;2022-11-23T00:30:08;99972.70;;;1.05;84.23
74790;BME280;63318;52.406;13.416;2022-11-23T00:32:37;99975.29;;;1.00;84.35
74790;BME280;63318;52.406;13.416;2022-11-23T00:35:06;99974.91;;;0.95;84.35
74790;BME280;63318;52.406;13.416;2022-11-23T00:37:34;99977.36;;;0.90;84.30
74790;BME280;63318;52.406;13.416;2022-11-23T00:40:02;99987.69;;;0.84;84.32
74790;BME280;63318;52.406;13.416;2022-11-23T00:42:30;99989.70;;;0.78;84.39
74790;BME280;63318;52.406;13.416;2022-11-23T00:44:59;99994.27;;;0.72;84.47
74790;BME280;63318;52.406;13.416;2022-11-23T00:47:27;100000.16;;;0.69;84.58
74790;BME280;63318;52.406;13.416;2022-11-23T00:49:55;100004.20;;;0.76;84.13
74790;BME280;63318;52.406;13.416;2022-11-23T00:52:23;100004.41;;;0.75;84.37
74790;BME280;63318;52.406;13.416;2022-11-23T00:54:51;100009.96;;;0.75;84.36
74790;BME280;63318;52.406;13.416;2022-11-23T00:57:20;100005.86;;;0.77;84.54
74790;BME280;63318;52.406;13.416;2022-11-23T00:59:48;100004.19;;;0.80;84.57
74790;BME280;63318;52.406;13.416;2022-11-23T01:02:16;100003.94;;;0.84;84.83
74790;BME280;63318;52.406;13.416;2022-11-23T01:04:44;100003.92;;;0.91;84.58
74790;BME280;63318;52.406;13.416;2022-11-23T01:07:12;100005.00;;;0.96;84.67
74790;BME280;63318;52.406;13.416;2022-11-23T01:09:41;100008.24;;;1.02;84.82
74790;BME280;63318;52.406;13.416;2022-11-23T01:12:09;100004.54;;;1.11;84.93
74790;BME280;63318;52.406;13.416;2022-11-23T01:14:37;100002.66;;;1.16;84.95
74790;BME280;63318;52.406;13.416;2022-11-23T01:17:05;100002.10;;;1.20;84.85
74790;BME280;63318;52.406;13.416;2022-11-23T01:19:33;100000.21;;;1.22;85.26
74790;BME280;63318;52.406;13.416;2022-11-23T01:22:02;100002.08;;;1.25;84.83
74790;BME280;63318;52.406;13.416;2022-11-23T01:24:30;100001.28;;;1.24;84.70
74790;BME280;63318;52.406;13.416;2022-11-23T01:26:58;100005.14;;;1.23;84.59
74790;BME280;63318;52.406;13.416;2022-11-23T01:29:26;100003.04;;;1.19;84.75
74790;BME280;63318;52.406;13.416;2022-11-23T01:31:55;100004.95;;;1.18;84.85
74790;BME280;63318;52.406;13.416;2022-11-23T01:34:23;100009.16;;;1.14;84.47
74790;BME280;63318;52.406;13.416;2022-11-23T01:36:51;100010.11;;;1.10;84.36
74790;BME280;63318;52.406;13.416;2022-11-23T01:39:19;100009.25;;;1.05;84.88
74790;BME280;63318;52.406;13.416;2022-11-23T01:41:47;100007.41;;;1.01;84.54
74790;BME280;63318;52.406;13.416;2022-11-23T01:44:25;100010.93;;;0.95;84.74
74790;BME280;63318;52.406;13.416;2022-11-23T01:46:54;100010.95;;;0.90;84.85
74790;BME280;63318;52.406;13.416;2022-11-23T01:49:24;100016.23;;;0.86;84.75
74790;BME280;63318;52.406;13.416;2022-11-23T01:51:55;100019.41;;;0.84;85.01
74790;BME280;63318;52.406;13.416;2022-11-23T01:54:26;100020.84;;;0.88;84.78
74790;BME280;63318;52.406;13.416;2022-11-23T01:56:59;100018.98;;;0.91;84.86
74790;BME280;63318;52.406;13.416;2022-11-23T01:59:27;100016.91;;;0.91;85.15
74790;BME280;63318;52.406;13.416;2022-11-23T02:01:57;100014.95;;;0.94;85.01
74790;BME280;63318;52.406;13.416;2022-11-23T02:04:28;100012.88;;;1.00;85.19
74790;BME280;63318;52.406;13.416;2022-11-23T02:07:00;100014.84;;;1.06;85.27
74790;BME280;63318;52.406;13.416;2022-11-23T02:09:29;100012.42;;;1.13;85.38
74790;BME280;63318;52.406;13.416;2022-11-23T02:11:58;100008.59;;;1.19;85.04
74790;BME280;63318;52.406;13.416;2022-11-23T02:14:26;100008.58;;;1.26;85.06
74790;BME280;63318;52.406;13.416;2022-11-23T02:16:55;100009.30;;;1.34;85.34
74790;BME280;63318;52.406;13.416;2022-11-23T02:19:32;100018.02;;;1.42;85.31
74790;BME280;63318;52.406;13.416;2022-11-23T02:22:03;100016.27;;;1.51;85.20
74790;BME280;63318;52.406;13.416;2022-11-23T02:24:36;100015.39;;;1.56;85.17
74790;BME280;63318;52.406;13.416;2022-11-23T02:27:08;100015.11;;;1.60;85.48
74790;BME280;63318;52.406;13.416;2022-11-23T02:29:36;100017.67;;;1.66;85.69
74790;BME280;63318;52.406;13.416;2022-11-23T02:32:05;100012.33;;;1.70;85.21
74790;BME280;63318;52.406;13.416;2022-11-23T02:34:33;100006.63;;;1.72;85.21
74790;BME280;63318;52.406;13.416;2022-11-23T02:37:01;100007.42;;;1.72;85.29
74790;BME280;63318;52.406;13.416;2022-11-23T02:39:32;100013.09;;;1.71;84.95
74790;BME280;63318;52.406;13.416;2022-11-23T02:42:02;100012.19;;;1.67;84.96
74790;BME280;63318;52.406;13.416;2022-11-23T02:44:43;100008.41;;;1.63;85.17
74790;BME280;63318;52.406;13.416;2022-11-23T02:47:15;100005.67;;;1.58;84.95
74790;BME280;63318;52.406;13.416;2022-11-23T02:49:46;100003.64;;;1.53;85.11
74790;BME280;63318;52.406;13.416;2022-11-23T02:52:15;100004.46;;;1.46;84.88
74790;BME280;63318;52.406;13.416;2022-11-23T02:54:44;100008.63;;;1.40;85.01
74790;BME280;63318;52.406;13.416;2022-11-23T02:57:12;100006.55;;;1.34;85.33
74790;BME280;63318;52.406;13.416;2022-11-23T02:59:41;100008.45;;;1.29;85.07
74790;BME280;63318;52.406;13.416;2022-11-23T03:02:09;100008.48;;;1.27;84.73
74790;BME280;63318;52.406;13.416;2022-11-23T03:04:37;100018.64;;;1.32;84.82
74790;BME280;63318;52.406;13.416;2022-11-23T03:07:05;100019.75;;;1.31;84.50
74790;BME280;63318;52.406;13.416;2022-11-23T03:09:33;100021.09;;;1.29;84.69
74790;BME280;63318;52.406;13.416;2022-11-23T03:12:02;100022.60;;;1.31;84.78
74790;BME280;63318;52.406;13.416;2022-11-23T03:14:30;100026.23;;;1.33;84.82
74790;BME280;63318;52.406;13.416;2022-11-23T03:16:58;100025.69;;;1.36;84.56
74790;BME280;63318;52.406;13.416;2022-11-23T03:19:27;100025.70;;;1.40;85.03
74790;BME280;63318;52.406;13.416;2022-11-23T03:21:55;100028.16;;;1.46;84.98
74790;BME280;63318;52.406;13.416;2022-11-23T03:24:23;100030.02;;;1.51;85.03
74790;BME280;63318;52.406;13.416;2022-11-23T03:26:51;100034.37;;;1.53;85.34
74790;BME280;63318;52.406;13.416;2022-11-23T03:29:19;100036.20;;;1.54;85.18
74790;BME280;63318;52.406;13.416;2022-11-23T03:31:48;100033.95;;;1.56;85.14
74790;BME280;63318;52.406;13.416;2022-11-23T03:34:16;100034.50;;;1.56;84.87
74790;BME280;63318;52.406;13.416;2022-11-23T03:36:44;100036.18;;;1.53;84.54
74790;BME280;63318;52.406;13.416;2022-11-23T03:39:12;100034.27;;;1.49;84.68
74790;BME280;63318;52.406;13.416;2022-11-23T03:41:40;100029.89;;;1.46;84.53
74790;BME280;63318;52.406;13.416;2022-11-23T03:44:09;100026.48;;;1.40;84.68
74790;BME280;63318;52.406;13.416;2022-11-23T03:46:37;100023.45;;;1.34;84.26
74790;BME280;63318;52.406;13.416;2022-11-23T03:49:05;100017.70;;;1.26;84.54
74790;BME280;63318;52.406;13.416;2022-11-23T03:51:33;100017.64;;;1.17;84.28
74790;BME280;63318;52.406;13.416;2022-11-23T03:54:01;100020.30;;;1.09;84.36
74790;BME280;63318;52.406;13.416;2022-11-23T03:56:30;100023.05;;;1.02;84.21
74790;BME280;63318;52.406;13.416;2022-11-23T03:58:58;100026.56;;;0.96;84.49
74790;BME280;63318;52.406;13.416;2022-11-23T04:01:26;100024.39;;;0.88;84.49
74790;BME280;63318;52.406;13.416;2022-11-23T04:03:54;100028.44;;;0.81;84.37
74790;BME280;63318;52.406;13.416;2022-11-23T04:06:23;100029.17;;;0.76;84.60
74790;BME280;63318;52.406;13.416;2022-11-23T04:08:51;100028.83;;;0.81;84.40
74790;BME280;63318;52.406;13.416;2022-11-23T04:11:19;100031.94;;;0.77;84.25
74790;BME280;63318;52.406;13.416;2022-11-23T04:13:48;100032.88;;;0.79;84.51
74790;BME280;63318;52.406;13.416;2022-11-23T04:16:16;100034.36;;;0.82;84.25
74790;BME280;63318;52.406;13.416;2022-11-23T04:18:44;100031.31;;;0.84;84.43
74790;BME280;63318;52.406;13.416;2022-11-23T04:21:12;100030.86;;;0.89;84.50
74790;BME280;63318;52.406;13.416;2022-11-23T04:23:41;100031.05;;;0.94;84.95
74790;BME280;63318;52.406;13.416;2022-11-23T04:26:09;100030.87;;;0.99;84.81
74790;BME280;63318;52.406;13.416;2022-11-23T04:28:37;100030.63;;;1.07;84.88
74790;BME280;63318;52.406;13.416;2022-11-23T04:31:05;100029.55;;;1.15;84.78
74790;BME280;63318;52.406;13.416;2022-11-23T04:33:34;100027.98;;;1.17;84.82
74790;BME280;63318;52.406;13.416;2022-11-23T04:36:02;100026.11;;;1.21;84.95
74790;BME280;63318;52.406;13.416;2022-11-23T04:38:30;100029.21;;;1.22;84.56
74790;BME280;63318;52.406;13.416;2022-11-23T04:40:58;100032.45;;;1.19;84.73
74790;BME280;63318;52.406;13.416;2022-11-23T04:43:27;100036.59;;;1.15;84.57
74790;BME280;63318;52.406;13.416;2022-11-23T04:45:55;100038.80;;;1.10;84.35
74790;BME280;63318;52.406;13.416;2022-11-23T04:48:23;100041.84;;;1.07;84.49
74790;BME280;63318;52.406;13.416;2022-11-23T04:50:51;100035.98;;;1.01;84.51
74790;BME280;63318;52.406;13.416;2022-11-23T04:53:20;100038.38;;;0.94;84.61
74790;BME280;63318;52.406;13.416;2022-11-23T04:55:48;100032.77;;;0.85;84.45
74790;BME280;63318;52.406;13.416;2022-11-23T04:58:16;100037.48;;;0.78;84.48
74790;BME280;63318;52.406;13.416;2022-11-23T05:00:44;100039.11;;;0.71;84.59
74790;BME280;63318;52.406;13.416;2022-11-23T05:03:12;100039.98;;;0.64;84.57
74790;BME280;63318;52.406;13.416;2022-11-23T05:05:41;100041.59;;;0.60;84.45
74790;BME280;63318;52.406;13.416;2022-11-23T05:08:09;100041.44;;;0.55;84.82
74790;BME280;63318;52.406;13.416;2022-11-23T05:10:38;100043.34;;;0.53;84.79
74790;BME280;63318;52.406;13.416;2022-11-23T05:13:07;100042.85;;;0.60;84.21
74790;BME280;63318;52.406;13.416;2022-11-23T05:15:35;100043.95;;;0.59;84.47
74790;BME280;63318;52.406;13.416;2022-11-23T05:18:04;100042.08;;;0.62;84.59
74790;BME280;63318;52.406;13.416;2022-11-23T05:20:33;100038.74;;;0.67;84.87
74790;BME280;63318;52.406;13.416;2022-11-23T05:23:01;100039.11;;;0.72;85.21
74790;BME280;63318;52.406;13.416;2022-11-23T05:25:30;100036.08;;;0.79;85.03
74790;BME280;63318;52.406;13.416;2022-11-23T05:27:59;100038.81;;;0.86;85.40
74790;BME280;63318;52.406;13.416;2022-11-23T05:30:27;100040.61;;;0.93;85.37
74790;BME280;63318;52.406;13.416;2022-11-23T05:33:00;100034.45;;;1.01;85.49
74790;BME280;63318;52.406;13.416;2022-11-23T05:35:29;100033.90;;;1.11;85.60
74790;BME280;63318;52.406;13.416;2022-11-23T05:37:57;100038.02;;;1.19;85.66
74790;BME280;63318;52.406;13.416;2022-11-23T05:40:25;100037.15;;;1.27;85.35
74790;BME280;63318;52.406;13.416;2022-11-23T05:42:56;100032.95;;;1.29;85.49
74790;BME280;63318;52.406;13.416;2022-11-23T05:45:25;100035.77;;;1.32;85.55
74790;BME280;63318;52.406;13.416;2022-11-23T05:47:56;100030.75;;;1.33;85.76
74790;BME280;63318;52.406;13.416;2022-11-23T05:50:26;100028.06;;;1.32;85.31
74790;BME280;63318;52.406;13.416;2022-11-23T05:52:56;100028.46;;;1.31;85.50
74790;BME280;63318;52.406;13.416;2022-11-23T05:55:26;100026.31;;;1.28;85.09
74790;BME280;63318;52.406;13.416;2022-11-23T05:57:54;100027.22;;;1.24;85.41
74790;BME280;63318;52.406;13.416;2022-11-23T06:00:23;100026.30;;;1.20;85.30
74790;BME280;63318;52.406;13.416;2022-11-23T06:02:51;100026.69;;;1.15;85.54
74790;BME280;63318;52.406;13.416;2022-11-23T06:05:19;100024.13;;;1.09;85.22
74790;BME280;63318;52.406;13.416;2022-11-23T06:07:52;100024.20;;;1.04;85.42
74790;BME280;63318;52.406;13.416;2022-11-23T06:10:21;100025.73;;;0.99;85.60
74790;BME280;63318;52.406;13.416;2022-11-23T06:12:49;100030.64;;;0.93;85.53
74790;BME280;63318;52.406;13.416;2022-11-23T06:15:18;100032.19;;;0.88;85.58
74790;BME280;63318;52.406;13.416;2022-11-23T06:17:46;100032.33;;;0.83;85.50
74790;BME280;63318;52.406;13.416;2022-11-23T06:20:15;100032.81;;;0.81;85.79
74790;BME280;63318;52.406;13.416;2022-11-23T06:22:43;100033.10;;;0.89;85.17
74790;BME280;63318;52.406;13.416;2022-11-23T06:25:18;100037.20;;;0.90;85.24
74790;BME280;63318;52.406;13.416;2022-11-23T06:27:56;100040.23;;;0.90;85.20
74790;BME280;63318;52.406;13.416;2022-11-23T06:30:26;100042.06;;;0.91;85.19
74790;BME280;63318;52.406;13.416;2022-11-23T06:32:54;100044.98;;;0.95;85.11
74790;BME280;63318;52.406;13.416;2022-11-23T06:35:23;100044.98;;;0.97;85.47
74790;BME280;63318;52.406;13.416;2022-11-23T06:37:52;100046.84;;;1.00;85.40
74790;BME280;63318;52.406;13.416;2022-11-23T06:40:20;100045.55;;;1.06;85.51
74790;BME280;63318;52.406;13.416;2022-11-23T06:42:48;100043.27;;;1.13;85.43
74790;BME280;63318;52.406;13.416;2022-11-23T06:45:17;100043.45;;;1.18;85.61
74790;BME280;63318;52.406;13.416;2022-11-23T06:47:45;100049.48;;;1.21;85.51
74790;BME280;63318;52.406;13.416;2022-11-23T06:50:14;100050.72;;;1.25;85.49
74790;BME280;63318;52.406;13.416;2022-11-23T06:52:42;100054.38;;;1.26;85.18
74790;BME280;63318;52.406;13.416;2022-11-23T06:55:11;100053.79;;;1.25;85.18
74790;BME280;63318;52.406;13.416;2022-11-23T06:57:39;100055.73;;;1.26;85.13
74790;BME280;63318;52.406;13.416;2022-11-23T07:00:10;100051.44;;;1.21;84.88
74790;BME280;63318;52.406;13.416;2022-11-23T07:02:38;100054.16;;;1.17;85.22
74790;BME280;63318;52.406;13.416;2022-11-23T07:05:08;100055.27;;;1.12;84.86
74790;BME280;63318;52.406;13.416;2022-11-23T07:07:36;100061.24;;;1.05;84.68
74790;BME280;63318;52.406;13.416;2022-11-23T07:10:06;100065.20;;;0.98;84.91
74790;BME280;63318;52.406;13.416;2022-11-23T07:12:35;100071.05;;;0.91;84.71
74790;BME280;63318;52.406;13.416;2022-11-23T07:15:03;100072.86;;;0.84;84.67
74790;BME280;63318;52.406;13.416;2022-11-23T07:17:32;100075.02;;;0.78;84.81
74790;BME280;63318;52.406;13.416;2022-11-23T07:20:00;100074.93;;;0.71;84.96
74790;BME280;63318;52.406;13.416;2022-11-23T07:22:28;100075.02;;;0.64;84.74
74790;BME280;63318;52.406;13.416;2022-11-23T07:24:56;100083.94;;;0.58;85.05
74790;BME280;63318;52.406;13.416;2022-11-23T07:27:24;100085.90;;;0.56;85.15
74790;BME280;63318;52.406;13.416;2022-11-23T07:29:53;100085.85;;;0.60;84.83
74790;BME280;63318;52.406;13.416;2022-11-23T07:32:21;100089.02;;;0.56;84.71
74790;BME280;63318;52.406;13.416;2022-11-23T07:34:49;100090.83;;;0.55;84.91
74790;BME280;63318;52.406;13.416;2022-11-23T07:37:18;100097.23;;;0.55;84.82
74790;BME280;63318;52.406;13.416;2022-11-23T07:39:47;100101.77;;;0.57;85.18
74790;BME280;63318;52.406;13.416;2022-11-23T07:42:15;100098.02;;;0.62;85.42
74790;BME280;63318;52.406;13.416;2022-11-23T07:44:44;100101.37;;;0.68;85.15
74790;BME280;63318;52.406;13.416;2022-11-23T07:47:12;100098.77;;;0.75;85.34
74790;BME280;63318;52.406;13.416;2022-11-23T07:49:41;100102.77;;;0.82;85.52
74790;BME280;63318;52.406;13.416;2022-11-23T07:52:10;100104.26;;;0.89;85.30
74790;BME280;63318;52.406;13.416;2022-11-23T07:54:38;100103.38;;;0.97;85.39
74790;BME280;63318;52.406;13.416;2022-11-23T07:57:06;100104.27;;;1.03;85.21
74790;BME280;63318;52.406;13.416;2022-11-23T07:59:35;100103.62;;;1.08;85.17
74790;BME280;63318;52.406;13.416;2022-11-23T08:02:03;100106.38;;;1.16;85.28
74790;BME280;63318;52.406;13.416;2022-11-23T08:04:31;100107.19;;;1.29;85.10
74790;BME280;63318;52.406;13.416;2022-11-23T08:06:59;100112.94;;;1.37;85.25
74790;BME280;63318;52.406;13.416;2022-11-23T08:09:28;100118.46;;;1.43;85.14
74790;BME280;63318;52.406;13.416;2022-11-23T08:11:56;100122.08;;;1.47;85.03
74790;BME280;63318;52.406;13.416;2022-11-23T08:14:24;100125.45;;;1.49;85.04
74790;BME280;63318;52.406;13.416;2022-11-23T08:16:52;100122.36;;;1.51;85.04
74790;BME280;63318;52.406;13.416;2022-11-23T08:19:21;100122.86;;;1.51;85.05
74790;BME280;63318;52.406;13.416;2022-11-23T08:21:49;100122.12;;;1.52;84.62
74790;BME280;63318;52.406;13.416;2022-11-23T08:24:17;100122.38;;;1.52;84.83
74790;BME280;63318;52.406;13.416;2022-11-23T08:26:45;100116.38;;;1.50;84.86
74790;BME280;63318;52.406;13.416;2022-11-23T08:29:14;100123.44;;;1.48;84.65
74790;BME280;63318;52.406;13.416;2022-11-23T08:31:42;100124.77;;;1.47;84.88
74790;BME280;63318;52.406;13.416;2022-11-23T08:34:11;100126.89;;;1.45;84.90
74790;BME280;63318;52.406;13.416;2022-11-23T08:36:39;100119.38;;;1.44;85.11
74790;BME280;63318;52.406;13.416;2022-11-23T08:39:07;100123.26;;;1.42;85.06
74790;BME280;63318;52.406;13.416;2022-11-23T08:41:35;100125.69;;;1.40;84.86
74790;BME280;63318;52.406;13.416;2022-11-23T08:44:04;100127.83;;;1.41;85.01
74790;BME280;63318;52.406;13.416;2022-11-23T08:46:32;100126.90;;;1.50;85.11
74790;BME280;63318;52.406;13.416;2022-11-23T08:49:00;100120.26;;;1.56;84.96
74790;BME280;63318;52.406;13.416;2022-11-23T08:51:28;100123.57;;;1.61;84.97
74790;BME280;63318;52.406;13.416;2022-11-23T08:53:57;100123.44;;;1.67;85.03
74790;BME280;63318;52.406;13.416;2022-11-23T08:56:25;100127.62;;;1.78;85.12
74790;BME280;63318;52.406;13.416;2022-11-23T08:58:53;100127.93;;;1.85;85.36
74790;BME280;63318;52.406;13.416;2022-11-23T09:01:21;100132.88;;;1.92;85.31
74790;BME280;63318;52.406;13.416;2022-11-23T09:03:50;100130.52;;;1.98;85.46
74790;BME280;63318;52.406;13.416;2022-11-23T09:06:18;100128.80;;;2.05;85.31
74790;BME280;63318;52.406;13.416;2022-11-23T09:08:46;100127.52;;;2.13;85.34
74790;BME280;63318;52.406;13.416;2022-11-23T09:11:16;100127.09;;;2.20;85.29
74790;BME280;63318;52.406;13.416;2022-11-23T09:13:45;100125.00;;;2.28;85.49
74790;BME280;63318;52.406;13.416;2022-11-23T09:16:13;100122.43;;;2.38;85.75
74790;BME280;63318;52.406;13.416;2022-11-23T09:18:41;100123.63;;;2.47;85.63
74790;BME280;63318;52.406;13.416;2022-11-23T09:21:09;100122.14;;;2.56;85.50
74790;BME280;63318;52.406;13.416;2022-11-23T09:23:38;100123.53;;;2.59;85.58
74790;BME280;63318;52.406;13.416;2022-11-23T09:26:07;100119.39;;;2.62;85.41
74790;BME280;63318;52.406;13.416;2022-11-23T09:28:35;100122.15;;;2.66;85.40
74790;BME280;63318;52.406;13.416;2022-11-23T09:31:04;100119.45;;;2.70;85.41
74790;BME280;63318;52.406;13.416;2022-11-23T09:33:33;100118.63;;;2.74;85.32
74790;BME280;63318;52.406;13.416;2022-11-23T09:36:02;100115.62;;;2.75;85.04
74790;BME280;63318;52.406;13.416;2022-11-23T09:38:31;100116.70;;;2.74;84.89
74790;BME280;63318;52.406;13.416;2022-11-23T09:41:14;100118.10;;;2.73;84.91
74790;BME280;63318;52.406;13.416;2022-11-23T09:43:53;100114.83;;;2.72;85.07
74790;BME280;63318;52.406;13.416;2022-11-23T09:46:35;100111.23;;;2.70;84.88
74790;BME280;63318;52.406;13.416;2022-11-23T09:49:16;100110.64;;;2.68;85.12
74790;BME280;63318;52.406;13.416;2022-11-23T09:51:46;100111.50;;;2.67;85.01
74790;BME280;63318;52.406;13.416;2022-11-23T09:54:23;100114.23;;;2.66;85.17
74790;BME280;63318;52.406;13.416;2022-11-23T09:56:56;100116.11;;;2.72;85.08
74790;BME280;63318;52.406;13.416;2022-11-23T09:59:32;100112.24;;;2.81;84.77
74790;BME280;63318;52.406;13.416;2022-11-23T10:02:04;100107.06;;;2.90;84.87
74790;BME280;63318;52.406;13.416;2022-11-23T10:04:34;100106.05;;;2.97;84.93
74790;BME280;63318;52.406;13.416;2022-11-23T10:10:02;100108.31;;;3.18;85.20
74790;BME280;63318;52.406;13.416;2022-11-23T10:12:46;100105.40;;;3.31;85.10
74790;BME280;63318;52.406;13.416;2022-11-23T10:15:22;100101.83;;;3.44;85.45
74790;BME280;63318;52.406;13.416;2022-11-23T10:18:17;100097.92;;;3.57;85.49
74790;BME280;63318;52.406;13.416;2022-11-23T10:20:55;100100.23;;;3.65;85.43
74790;BME280;63318;52.406;13.416;2022-11-23T10:23:33;100098.91;;;3.73;85.53
74790;BME280;63318;52.406;13.416;2022-11-23T10:26:09;100099.70;;;3.81;85.67
74790;BME280;63318;52.406;13.416;2022-11-23T10:28:39;100104.59;;;3.89;85.50
74790;BME280;63318;52.406;13.416;2022-11-23T10:31:13;100106.48;;;3.95;85.25
74790;BME280;63318;52.406;13.416;2022-11-23T10:33:48;100102.64;;;4.02;85.33
74790;BME280;63318;52.406;13.416;2022-11-23T10:36:20;100103.27;;;4.07;85.14
74790;BME280;63318;52.406;13.416;2022-11-23T10:38:50;100101.65;;;4.12;85.13
74790;BME280;63318;52.406;13.416;2022-11-23T10:41:21;100098.60;;;4.17;85.20
74790;BME280;63318;52.406;13.416;2022-11-23T10:43:53;100097.36;;;4.21;85.04
74790;BME280;63318;52.406;13.416;2022-11-23T10:46:36;100095.37;;;4.27;85.13
74790;BME280;63318;52.406;13.416;2022-11-23T10:49:25;100097.10;;;4.32;85.17
74790;BME280;63318;52.406;13.416;2022-11-23T10:51:56;100091.45;;;4.36;84.97
74790;BME280;63318;52.406;13.416;2022-11-23T10:54:30;100091.66;;;4.39;84.97
74790;BME280;63318;52.406;13.416;2022-11-23T10:57:01;100090.83;;;4.45;84.67
74790;BME280;63318;52.406;13.416;2022-11-23T10:59:35;100088.36;;;4.56;84.43
74790;BME280;63318;52.406;13.416;2022-11-23T11:02:16;100089.69;;;4.59;84.42
74790;BME280;63318;52.406;13.416;2022-11-23T11:04:46;100092.24;;;4.64;84.40
74790;BME280;63318;52.406;13.416;2022-11-23T11:07:25;100089.83;;;4.68;84.45
74790;BME280;63318;52.406;13.416;2022-11-23T11:09:55;100093.16;;;4.74;84.50
74790;BME280;63318;52.406;13.416;2022-11-23T11:12:25;100085.46;;;4.81;84.52
74790;BME280;63318;52.406;13.416;2022-11-23T11:15:03;100080.27;;;4.88;84.50
74790;BME280;63318;52.406;13.416;2022-11-23T11:17:41;100077.43;;;4.97;84.63
74790;BME280;63318;52.406;13.416;2022-11-23T11:20:32;100069.55;;;5.04;84.50
74790;BME280;63318;52.406;13.416;2022-11-23T11:23:03;100071.84;;;5.15;84.29
74790;BME280;63318;52.406;13.416;2022-11-23T11:25:42;100068.94;;;5.25;84.34
74790;BME280;63318;52.406;13.416;2022-11-23T11:28:22;100067.11;;;5.33;84.47
74790;BME280;63318;52.406;13.416;2022-11-23T11:30:58;100065.37;;;5.39;84.37
74790;BME280;63318;52.406;13.416;2022-11-23T11:33:34;100062.70;;;5.46;84.21
74790;BME280;63318;52.406;13.416;2022-11-23T11:36:07;100064.50;;;5.53;84.09
74790;BME280;63318;52.406;13.416;2022-11-23T11:38:37;100063.31;;;5.60;84.04
74790;BME280;63318;52.406;13.416;2022-11-23T11:41:09;100060.63;;;5.67;83.72
74790;BME280;63318;52.406;13.416;2022-11-23T11:43:41;100062.15;;;5.71;83.57
74790;BME280;63318;52.406;13.416;2022-11-23T11:46:13;100064.39;;;5.73;83.38
74790;BME280;63318;52.406;13.416;2022-11-23T11:48:46;100060.39;;;5.75;83.25
74790;BME280;63318;52.406;13.416;2022-11-23T11:51:21;100063.73;;;5.74;83.26
74790;BME280;63318;52.406;13.416;2022-11-23T11:53:58;100066.92;;;5.73;83.08
74790;BME280;63318;52.406;13.416;2022-11-23T11:56:34;100068.77;;;5.71;82.89
74790;BME280;63318;52.406;13.416;2022-11-23T11:59:11;100068.92;;;5.70;82.92
74790;BME280;63318;52.406;13.416;2022-11-23T12:01:47;100069.80;;;5.69;82.95
74790;BME280;63318;52.406;13.416;2022-11-23T12:04:22;100067.03;;;5.68;82.77
74790;BME280;63318;52.406;13.416;2022-11-23T12:06:58;100068.05;;;5.70;82.71
74790;BME280;63318;52.406;13.416;2022-11-23T12:09:33;100067.22;;;5.80;82.63
74790;BME280;63318;52.406;13.416;2022-11-23T12:12:06;100071.80;;;5.81;82.51
74790;BME280;63318;52.406;13.416;2022-11-23T12:14:38;100069.30;;;5.83;82.74
74790;BME280;63318;52.406;13.416;2022-11-23T12:17:14;100068.60;;;5.88;82.76
74790;BME280;63318;52.406;13.416;2022-11-23T12:19:58;100068.95;;;5.95;82.97
74790;BME280;63318;52.406;13.416;2022-11-23T12:22:38;100067.25;;;6.02;82.92
74790;BME280;63318;52.406;13.416;2022-11-23T12:25:18;100063.86;;;6.12;82.71
74790;BME280;63318;52.406;13.416;2022-11-23T12:27:58;100060.84;;;6.17;82.99
74790;BME280;63318;52.406;13.416;2022-11-23T12:30:33;100062.94;;;6.25;82.88
74790;BME280;63318;52.406;13.416;2022-11-23T12:33:27;100061.49;;;6.30;82.82
74790;BME280;63318;52.406;13.416;2022-11-23T12:36:11;100062.85;;;6.34;82.74
74790;BME280;63318;52.406;13.416;2022-11-23T12:38:52;100065.09;;;6.38;82.41
74790;BME280;63318;52.406;13.416;2022-11-23T12:41:38;100065.90;;;6.41;82.43
74790;BME280;63318;52.406;13.416;2022-11-23T12:44:47;100069.54;;;6.42;82.11
74790;BME280;63318;52.406;13.416;2022-11-23T12:47:24;100069.77;;;6.42;81.86
74790;BME280;63318;52.406;13.416;2022-11-23T12:50:02;100065.52;;;6.41;81.84
74790;BME280;63318;52.406;13.416;2022-11-23T12:52:43;100067.30;;;6.40;82.05
74790;BME280;63318;52.406;13.416;2022-11-23T12:55:24;100069.73;;;6.39;81.65
74790;BME280;63318;52.406;13.416;2022-11-23T12:58:00;100069.21;;;6.38;81.72
74790;BME280;63318;52.406;13.416;2022-11-23T13:00:35;100070.11;;;6.38;81.88
74790;BME280;63318;52.406;13.416;2022-11-23T13:03:32;100071.60;;;6.38;81.78
74790;BME280;63318;52.406;13.416;2022-11-23T13:06:24;100064.83;;;6.39;81.78
74790;BME280;63318;52.406;13.416;2022-11-23T13:12:22;100066.08;;;6.59;81.68
74790;BME280;63318;52.406;13.416;2022-11-23T13:15:02;100064.36;;;6.65;81.73